sensor_id;sensor_type;location;lat;lon;timestamp;P1;durP1;ratioP1;P2;durP2;ratioP2
27706;SDS011;36332;51.384;0.040;2023-03-01T00:01:21;28.13;;;16.05;;
27706;SDS011;36332;51.384;0.040;2023-03-01T00:03:50;31.70;;;16.85;;
27706;SDS011;36332;51.384;0.040;2023-03-01T00:06:19;28.00;;;17.55;;
27706;SDS011;36332;51.384;0.040;2023-03-01T00:08:47;30.90;;;17.63;;
27706;SDS011;36332;51.384;0.040;2023-03-01T00:13:51;30.35;;;18.00;;
27706;SDS011;36332;51.384;0.040;2023-03-01T00:16:22;29.17;;;19.80;;
27706;SDS011;36332;51.384;0.040;2023-03-01T00:18:54;31.17;;;19.48;;
27706;SDS011;36332;51.384;0.040;2023-03-01T00:21:22;29.88;;;18.42;;
27706;SDS011;36332;51.384;0.040;2023-03-01T00:23:51;39.92;;;20.30;;
27706;SDS011;36332;51.384;0.040;2023-03-01T00:26:20;38.47;;;20.40;;
27706;SDS011;36332;51.384;0.040;2023-03-01T00:28:49;29.10;;;18.65;;
27706;SDS011;36332;51.384;0.040;2023-03-01T00:31:18;29.25;;;17.70;;
27706;SDS011;36332;51.384;0.040;2023-03-01T00:33:47;30.02;;;18.98;;
27706;SDS011;36332;51.384;0.040;2023-03-01T00:36:16;29.77;;;18.63;;
27706;SDS011;36332;51.384;0.040;2023-03-01T00:38:44;30.02;;;18.90;;
27706;SDS011;36332;51.384;0.040;2023-03-01T00:41:14;35.03;;;19.48;;
27706;SDS011;36332;51.384;0.040;2023-03-01T00:43:44;27.45;;;18.23;;
27706;SDS011;36332;51.384;0.040;2023-03-01T00:46:14;31.58;;;19.35;;
27706;SDS011;36332;51.384;0.040;2023-03-01T00:48:43;26.13;;;18.67;;
27706;SDS011;36332;51.384;0.040;2023-03-01T00:51:16;27.77;;;18.65;;
27706;SDS011;36332;51.384;0.040;2023-03-01T00:53:50;31.85;;;19.33;;
27706;SDS011;36332;51.384;0.040;2023-03-01T00:56:20;32.15;;;20.13;;
27706;SDS011;36332;51.384;0.040;2023-03-01T00:58:48;28.98;;;18.05;;
27706;SDS011;36332;51.384;0.040;2023-03-01T01:01:20;30.58;;;19.00;;
27706;SDS011;36332;51.384;0.040;2023-03-01T01:03:51;31.95;;;17.88;;
27706;SDS011;36332;51.384;0.040;2023-03-01T01:08:51;33.78;;;18.83;;
27706;SDS011;36332;51.384;0.040;2023-03-01T01:11:21;27.27;;;18.20;;
27706;SDS011;36332;51.384;0.040;2023-03-01T01:13:50;40.55;;;19.38;;
27706;SDS011;36332;51.384;0.040;2023-03-01T01:16:19;30.27;;;19.98;;
27706;SDS011;36332;51.384;0.040;2023-03-01T01:18:49;27.20;;;18.45;;
27706;SDS011;36332;51.384;0.040;2023-03-01T01:21:18;33.08;;;18.27;;
27706;SDS011;36332;51.384;0.040;2023-03-01T01:23:49;35.67;;;19.13;;
27706;SDS011;36332;51.384;0.040;2023-03-01T01:26:22;30.55;;;19.70;;
27706;SDS011;36332;51.384;0.040;2023-03-01T01:28:52;29.67;;;20.08;;
27706;SDS011;36332;51.384;0.040;2023-03-01T01:31:21;31.65;;;19.25;;
27706;SDS011;36332;51.384;0.040;2023-03-01T01:33:53;32.10;;;18.77;;
27706;SDS011;36332;51.384;0.040;2023-03-01T01:36:21;42.53;;;22.25;;
27706;SDS011;36332;51.384;0.040;2023-03-01T01:38:50;34.33;;;19.25;;
27706;SDS011;36332;51.384;0.040;2023-03-01T01:41:18;30.65;;;19.83;;
27706;SDS011;36332;51.384;0.040;2023-03-01T01:43:48;31.13;;;19.42;;
27706;SDS011;36332;51.384;0.040;2023-03-01T01:46:37;35.15;;;18.38;;
27706;SDS011;36332;51.384;0.040;2023-03-01T01:49:07;32.70;;;19.85;;
27706;SDS011;36332;51.384;0.040;2023-03-01T01:51:57;29.67;;;18.58;;
27706;SDS011;36332;51.384;0.040;2023-03-01T01:54:37;31.77;;;19.70;;
27706;SDS011;36332;51.384;0.040;2023-03-01T01:57:30;37.70;;;20.83;;
27706;SDS011;36332;51.384;0.040;2023-03-01T02:02:39;30.02;;;18.15;;
27706;SDS011;36332;51.384;0.040;2023-03-01T02:05:20;44.70;;;20.33;;
27706;SDS011;36332;51.384;0.040;2023-03-01T02:07:56;32.28;;;20.65;;
27706;SDS011;36332;51.384;0.040;2023-03-01T02:10:26;36.65;;;21.75;;
27706;SDS011;36332;51.384;0.040;2023-03-01T02:12:55;35.92;;;21.35;;
27706;SDS011;36332;51.384;0.040;2023-03-01T02:15:24;37.15;;;22.85;;
27706;SDS011;36332;51.384;0.040;2023-03-01T02:17:54;40.90;;;22.70;;
27706;SDS011;36332;51.384;0.040;2023-03-01T02:20:35;37.85;;;20.48;;
27706;SDS011;36332;51.384;0.040;2023-03-01T02:23:15;36.63;;;21.27;;
27706;SDS011;36332;51.384;0.040;2023-03-01T02:28:24;39.38;;;21.30;;
27706;SDS011;36332;51.384;0.040;2023-03-01T02:30:59;37.08;;;22.58;;
27706;SDS011;36332;51.384;0.040;2023-03-01T02:33:46;42.55;;;21.10;;
27706;SDS011;36332;51.384;0.040;2023-03-01T02:36:17;45.17;;;22.42;;
27706;SDS011;36332;51.384;0.040;2023-03-01T02:38:48;38.53;;;21.48;;
27706;SDS011;36332;51.384;0.040;2023-03-01T02:41:19;40.22;;;23.98;;
27706;SDS011;36332;51.384;0.040;2023-03-01T02:43:48;49.40;;;23.30;;
27706;SDS011;36332;51.384;0.040;2023-03-01T02:46:17;42.03;;;20.67;;
27706;SDS011;36332;51.384;0.040;2023-03-01T02:48:51;39.30;;;21.55;;
27706;SDS011;36332;51.384;0.040;2023-03-01T02:54:20;38.20;;;21.02;;
27706;SDS011;36332;51.384;0.040;2023-03-01T02:56:57;33.13;;;20.20;;
27706;SDS011;36332;51.384;0.040;2023-03-01T02:59:30;38.83;;;19.98;;
27706;SDS011;36332;51.384;0.040;2023-03-01T03:02:02;46.65;;;21.48;;
27706;SDS011;36332;51.384;0.040;2023-03-01T03:04:29;39.63;;;20.92;;
27706;SDS011;36332;51.384;0.040;2023-03-01T03:06:57;33.33;;;20.13;;
27706;SDS011;36332;51.384;0.040;2023-03-01T03:09:25;38.58;;;22.13;;
27706;SDS011;36332;51.384;0.040;2023-03-01T03:11:53;33.95;;;20.58;;
27706;SDS011;36332;51.384;0.040;2023-03-01T03:14:22;40.67;;;20.15;;
27706;SDS011;36332;51.384;0.040;2023-03-01T03:16:50;32.63;;;19.17;;
27706;SDS011;36332;51.384;0.040;2023-03-01T03:19:19;35.92;;;18.67;;
27706;SDS011;36332;51.384;0.040;2023-03-01T03:21:46;32.42;;;17.83;;
27706;SDS011;36332;51.384;0.040;2023-03-01T03:24:14;22.52;;;14.32;;
27706;SDS011;36332;51.384;0.040;2023-03-01T03:26:42;23.52;;;12.95;;
27706;SDS011;36332;51.384;0.040;2023-03-01T03:29:10;23.70;;;8.32;;
27706;SDS011;36332;51.384;0.040;2023-03-01T03:31:37;20.58;;;8.77;;
27706;SDS011;36332;51.384;0.040;2023-03-01T03:34:05;12.05;;;6.15;;
27706;SDS011;36332;51.384;0.040;2023-03-01T03:36:32;19.25;;;6.35;;
27706;SDS011;36332;51.384;0.040;2023-03-01T03:39:00;25.77;;;7.95;;
27706;SDS011;36332;51.384;0.040;2023-03-01T03:41:28;12.23;;;5.60;;
27706;SDS011;36332;51.384;0.040;2023-03-01T03:43:55;20.42;;;6.43;;
27706;SDS011;36332;51.384;0.040;2023-03-01T03:46:23;7.53;;;4.95;;
27706;SDS011;36332;51.384;0.040;2023-03-01T03:48:50;20.55;;;5.90;;
27706;SDS011;36332;51.384;0.040;2023-03-01T03:51:18;13.43;;;5.90;;
27706;SDS011;36332;51.384;0.040;2023-03-01T03:53:45;11.00;;;5.03;;
27706;SDS011;36332;51.384;0.040;2023-03-01T03:56:13;11.40;;;4.93;;
27706;SDS011;36332;51.384;0.040;2023-03-01T03:58:41;15.55;;;4.97;;
27706;SDS011;36332;51.384;0.040;2023-03-01T04:01:09;13.05;;;5.57;;
27706;SDS011;36332;51.384;0.040;2023-03-01T04:03:37;12.80;;;6.13;;
27706;SDS011;36332;51.384;0.040;2023-03-01T04:06:04;10.95;;;5.38;;
27706;SDS011;36332;51.384;0.040;2023-03-01T04:08:32;8.85;;;4.90;;
27706;SDS011;36332;51.384;0.040;2023-03-01T04:11:00;11.15;;;4.43;;
27706;SDS011;36332;51.384;0.040;2023-03-01T04:13:48;13.90;;;4.78;;
27706;SDS011;36332;51.384;0.040;2023-03-01T04:16:16;15.68;;;4.88;;
27706;SDS011;36332;51.384;0.040;2023-03-01T04:18:45;8.48;;;4.72;;
27706;SDS011;36332;51.384;0.040;2023-03-01T04:21:13;13.52;;;5.07;;
27706;SDS011;36332;51.384;0.040;2023-03-01T04:23:41;20.08;;;5.20;;
27706;SDS011;36332;51.384;0.040;2023-03-01T04:26:09;18.48;;;5.65;;
27706;SDS011;36332;51.384;0.040;2023-03-01T04:28:37;10.90;;;4.88;;
27706;SDS011;36332;51.384;0.040;2023-03-01T04:31:08;11.38;;;4.50;;
27706;SDS011;36332;51.384;0.040;2023-03-01T04:33:41;6.13;;;4.35;;
27706;SDS011;36332;51.384;0.040;2023-03-01T04:36:11;8.27;;;4.00;;
27706;SDS011;36332;51.384;0.040;2023-03-01T04:38:39;20.77;;;4.43;;
27706;SDS011;36332;51.384;0.040;2023-03-01T04:41:08;14.43;;;4.85;;
27706;SDS011;36332;51.384;0.040;2023-03-01T04:43:37;10.32;;;4.28;;
27706;SDS011;36332;51.384;0.040;2023-03-01T04:46:06;13.45;;;4.38;;
27706;SDS011;36332;51.384;0.040;2023-03-01T04:48:36;8.68;;;4.07;;
27706;SDS011;36332;51.384;0.040;2023-03-01T04:51:05;7.88;;;4.03;;
27706;SDS011;36332;51.384;0.040;2023-03-01T04:53:33;12.60;;;4.53;;
27706;SDS011;36332;51.384;0.040;2023-03-01T04:56:03;6.40;;;4.55;;
27706;SDS011;36332;51.384;0.040;2023-03-01T04:58:31;7.95;;;4.47;;
27706;SDS011;36332;51.384;0.040;2023-03-01T05:00:59;6.88;;;3.97;;
27706;SDS011;36332;51.384;0.040;2023-03-01T05:03:26;5.97;;;4.00;;
27706;SDS011;36332;51.384;0.040;2023-03-01T05:05:58;11.00;;;4.78;;
27706;SDS011;36332;51.384;0.040;2023-03-01T05:08:26;10.63;;;4.53;;
27706;SDS011;36332;51.384;0.040;2023-03-01T05:10:54;8.07;;;4.93;;
27706;SDS011;36332;51.384;0.040;2023-03-01T05:13:21;10.75;;;4.60;;
27706;SDS011;36332;51.384;0.040;2023-03-01T05:15:55;6.20;;;4.18;;
27706;SDS011;36332;51.384;0.040;2023-03-01T05:18:25;4.53;;;2.85;;
27706;SDS011;36332;51.384;0.040;2023-03-01T05:20:55;6.10;;;4.28;;
27706;SDS011;36332;51.384;0.040;2023-03-01T05:23:28;9.38;;;3.78;;
27706;SDS011;36332;51.384;0.040;2023-03-01T05:26:02;15.77;;;4.40;;
27706;SDS011;36332;51.384;0.040;2023-03-01T05:28:33;7.38;;;4.57;;
27706;SDS011;36332;51.384;0.040;2023-03-01T05:31:02;9.10;;;4.60;;
27706;SDS011;36332;51.384;0.040;2023-03-01T05:33:29;8.20;;;3.95;;
27706;SDS011;36332;51.384;0.040;2023-03-01T05:35:59;8.48;;;3.97;;
27706;SDS011;36332;51.384;0.040;2023-03-01T05:38:28;5.95;;;3.35;;
27706;SDS011;36332;51.384;0.040;2023-03-01T05:40:55;5.03;;;3.65;;
27706;SDS011;36332;51.384;0.040;2023-03-01T05:43:23;5.00;;;3.65;;
27706;SDS011;36332;51.384;0.040;2023-03-01T05:45:52;5.32;;;3.80;;
27706;SDS011;36332;51.384;0.040;2023-03-01T05:48:20;5.68;;;3.60;;
27706;SDS011;36332;51.384;0.040;2023-03-01T05:50:47;7.45;;;3.83;;
27706;SDS011;36332;51.384;0.040;2023-03-01T05:53:19;8.25;;;3.80;;
27706;SDS011;36332;51.384;0.040;2023-03-01T05:55:48;5.20;;;3.65;;
27706;SDS011;36332;51.384;0.040;2023-03-01T05:58:17;8.45;;;3.63;;
27706;SDS011;36332;51.384;0.040;2023-03-01T06:00:47;6.90;;;3.63;;
27706;SDS011;36332;51.384;0.040;2023-03-01T06:03:16;3.70;;;2.85;;
27706;SDS011;36332;51.384;0.040;2023-03-01T06:05:45;6.60;;;4.25;;
27706;SDS011;36332;51.384;0.040;2023-03-01T06:08:13;6.22;;;3.88;;
27706;SDS011;36332;51.384;0.040;2023-03-01T06:10:41;5.18;;;4.13;;
27706;SDS011;36332;51.384;0.040;2023-03-01T06:13:08;5.05;;;3.60;;
27706;SDS011;36332;51.384;0.040;2023-03-01T06:15:36;5.78;;;3.53;;
27706;SDS011;36332;51.384;0.040;2023-03-01T06:18:04;10.00;;;4.35;;
27706;SDS011;36332;51.384;0.040;2023-03-01T06:20:32;8.07;;;3.42;;
27706;SDS011;36332;51.384;0.040;2023-03-01T06:23:00;6.03;;;3.63;;
27706;SDS011;36332;51.384;0.040;2023-03-01T06:25:27;7.40;;;3.58;;
27706;SDS011;36332;51.384;0.040;2023-03-01T06:27:55;7.43;;;3.58;;
27706;SDS011;36332;51.384;0.040;2023-03-01T06:30:24;4.82;;;3.22;;
27706;SDS011;36332;51.384;0.040;2023-03-01T06:32:53;5.35;;;3.53;;
27706;SDS011;36332;51.384;0.040;2023-03-01T06:35:27;6.57;;;3.67;;
27706;SDS011;36332;51.384;0.040;2023-03-01T06:37:59;8.05;;;3.38;;
27706;SDS011;36332;51.384;0.040;2023-03-01T06:40:28;10.48;;;4.32;;
27706;SDS011;36332;51.384;0.040;2023-03-01T06:42:56;7.60;;;3.92;;
27706;SDS011;36332;51.384;0.040;2023-03-01T06:45:25;7.55;;;4.38;;
27706;SDS011;36332;51.384;0.040;2023-03-01T06:47:57;10.18;;;4.97;;
27706;SDS011;36332;51.384;0.040;2023-03-01T06:50:29;10.00;;;5.18;;
27706;SDS011;36332;51.384;0.040;2023-03-01T06:52:57;14.80;;;4.80;;
27706;SDS011;36332;51.384;0.040;2023-03-01T06:55:25;7.85;;;5.30;;
27706;SDS011;36332;51.384;0.040;2023-03-01T06:57:55;11.65;;;5.05;;
27706;SDS011;36332;51.384;0.040;2023-03-01T07:00:23;17.33;;;6.05;;
27706;SDS011;36332;51.384;0.040;2023-03-01T07:02:51;7.82;;;6.00;;
27706;SDS011;36332;51.384;0.040;2023-03-01T07:05:19;10.35;;;6.22;;
27706;SDS011;36332;51.384;0.040;2023-03-01T07:07:47;11.27;;;6.32;;
27706;SDS011;36332;51.384;0.040;2023-03-01T07:10:15;9.27;;;6.22;;
27706;SDS011;36332;51.384;0.040;2023-03-01T07:12:42;12.20;;;6.40;;
27706;SDS011;36332;51.384;0.040;2023-03-01T07:15:10;11.55;;;6.53;;
27706;SDS011;36332;51.384;0.040;2023-03-01T07:17:38;11.63;;;5.90;;
27706;SDS011;36332;51.384;0.040;2023-03-01T07:20:05;13.63;;;6.28;;
27706;SDS011;36332;51.384;0.040;2023-03-01T07:22:33;30.10;;;6.75;;
27706;SDS011;36332;51.384;0.040;2023-03-01T07:25:00;11.50;;;6.03;;
27706;SDS011;36332;51.384;0.040;2023-03-01T07:27:28;9.75;;;5.32;;
27706;SDS011;36332;51.384;0.040;2023-03-01T07:29:55;16.25;;;6.43;;
27706;SDS011;36332;51.384;0.040;2023-03-01T07:32:23;13.98;;;6.53;;
27706;SDS011;36332;51.384;0.040;2023-03-01T07:34:51;11.70;;;5.95;;
27706;SDS011;36332;51.384;0.040;2023-03-01T07:37:18;8.70;;;5.13;;
27706;SDS011;36332;51.384;0.040;2023-03-01T07:39:46;15.57;;;5.35;;
27706;SDS011;36332;51.384;0.040;2023-03-01T07:42:14;10.43;;;5.00;;
27706;SDS011;36332;51.384;0.040;2023-03-01T07:44:41;8.27;;;4.60;;
27706;SDS011;36332;51.384;0.040;2023-03-01T07:47:09;13.63;;;4.72;;
27706;SDS011;36332;51.384;0.040;2023-03-01T07:49:36;12.25;;;4.88;;
27706;SDS011;36332;51.384;0.040;2023-03-01T07:52:04;10.02;;;4.70;;
27706;SDS011;36332;51.384;0.040;2023-03-01T07:54:31;10.40;;;4.68;;
27706;SDS011;36332;51.384;0.040;2023-03-01T07:56:59;16.02;;;4.80;;
27706;SDS011;36332;51.384;0.040;2023-03-01T07:59:26;7.60;;;4.32;;
27706;SDS011;36332;51.384;0.040;2023-03-01T08:01:56;10.18;;;5.03;;
27706;SDS011;36332;51.384;0.040;2023-03-01T08:04:24;11.10;;;4.95;;
27706;SDS011;36332;51.384;0.040;2023-03-01T08:06:54;13.30;;;5.95;;
27706;SDS011;36332;51.384;0.040;2023-03-01T08:09:21;12.85;;;5.45;;
27706;SDS011;36332;51.384;0.040;2023-03-01T08:11:49;12.40;;;5.18;;
27706;SDS011;36332;51.384;0.040;2023-03-01T08:14:17;13.38;;;5.57;;
27706;SDS011;36332;51.384;0.040;2023-03-01T08:16:44;11.15;;;5.82;;
27706;SDS011;36332;51.384;0.040;2023-03-01T08:19:12;13.60;;;5.18;;
27706;SDS011;36332;51.384;0.040;2023-03-01T08:21:39;12.32;;;5.05;;
27706;SDS011;36332;51.384;0.040;2023-03-01T08:24:07;10.05;;;5.07;;
27706;SDS011;36332;51.384;0.040;2023-03-01T08:26:37;9.70;;;5.10;;
27706;SDS011;36332;51.384;0.040;2023-03-01T08:29:04;13.57;;;4.40;;
27706;SDS011;36332;51.384;0.040;2023-03-01T08:31:36;9.35;;;4.50;;
27706;SDS011;36332;51.384;0.040;2023-03-01T08:34:07;11.00;;;4.78;;
27706;SDS011;36332;51.384;0.040;2023-03-01T08:36:40;12.95;;;4.45;;
27706;SDS011;36332;51.384;0.040;2023-03-01T08:39:11;9.23;;;4.55;;
27706;SDS011;36332;51.384;0.040;2023-03-01T08:41:39;7.47;;;4.28;;
27706;SDS011;36332;51.384;0.040;2023-03-01T08:44:09;11.80;;;3.47;;
27706;SDS011;36332;51.384;0.040;2023-03-01T08:46:38;8.52;;;4.00;;
27706;SDS011;36332;51.384;0.040;2023-03-01T08:49:08;12.18;;;4.07;;
27706;SDS011;36332;51.384;0.040;2023-03-01T08:51:44;9.38;;;4.90;;
27706;SDS011;36332;51.384;0.040;2023-03-01T08:54:14;11.02;;;3.33;;
27706;SDS011;36332;51.384;0.040;2023-03-01T08:56:43;5.03;;;2.40;;
27706;SDS011;36332;51.384;0.040;2023-03-01T08:59:12;6.75;;;3.00;;
27706;SDS011;36332;51.384;0.040;2023-03-01T09:01:40;5.57;;;2.55;;
27706;SDS011;36332;51.384;0.040;2023-03-01T09:04:10;5.28;;;2.25;;
27706;SDS011;36332;51.384;0.040;2023-03-01T09:06:39;6.07;;;2.38;;
27706;SDS011;36332;51.384;0.040;2023-03-01T09:09:07;5.78;;;2.53;;
27706;SDS011;36332;51.384;0.040;2023-03-01T09:11:44;4.35;;;2.67;;
27706;SDS011;36332;51.384;0.040;2023-03-01T09:14:13;6.75;;;3.28;;
27706;SDS011;36332;51.384;0.040;2023-03-01T09:16:41;2.30;;;1.70;;
27706;SDS011;36332;51.384;0.040;2023-03-01T09:19:09;2.92;;;1.80;;
27706;SDS011;36332;51.384;0.040;2023-03-01T09:21:36;8.05;;;1.98;;
27706;SDS011;36332;51.384;0.040;2023-03-01T09:24:11;4.63;;;2.05;;
27706;SDS011;36332;51.384;0.040;2023-03-01T09:26:41;4.13;;;1.88;;
27706;SDS011;36332;51.384;0.040;2023-03-01T09:29:09;9.25;;;2.75;;
27706;SDS011;36332;51.384;0.040;2023-03-01T09:31:37;6.13;;;2.50;;
27706;SDS011;36332;51.384;0.040;2023-03-01T09:34:05;12.73;;;2.80;;
27706;SDS011;36332;51.384;0.040;2023-03-01T09:36:33;7.72;;;2.33;;
27706;SDS011;36332;51.384;0.040;2023-03-01T09:39:01;3.72;;;2.38;;
27706;SDS011;36332;51.384;0.040;2023-03-01T09:44:36;7.72;;;2.30;;
27706;SDS011;36332;51.384;0.040;2023-03-01T09:47:12;3.50;;;2.08;;
27706;SDS011;36332;51.384;0.040;2023-03-01T09:49:49;9.10;;;2.63;;
27706;SDS011;36332;51.384;0.040;2023-03-01T09:52:41;10.23;;;2.67;;
27706;SDS011;36332;51.384;0.040;2023-03-01T09:55:11;4.80;;;2.55;;
27706;SDS011;36332;51.384;0.040;2023-03-01T09:57:43;4.60;;;1.70;;
27706;SDS011;36332;51.384;0.040;2023-03-01T10:05:44;4.50;;;2.10;;
27706;SDS011;36332;51.384;0.040;2023-03-01T10:13:23;5.68;;;2.30;;
27706;SDS011;36332;51.384;0.040;2023-03-01T10:16:11;5.22;;;2.50;;
27706;SDS011;36332;51.384;0.040;2023-03-01T10:18:55;6.10;;;2.38;;
27706;SDS011;36332;51.384;0.040;2023-03-01T10:21:27;5.13;;;2.47;;
27706;SDS011;36332;51.384;0.040;2023-03-01T10:24:08;3.67;;;2.33;;
27706;SDS011;36332;51.384;0.040;2023-03-01T10:29:39;2.60;;;1.85;;
27706;SDS011;36332;51.384;0.040;2023-03-01T10:32:30;4.35;;;1.88;;
27706;SDS011;36332;51.384;0.040;2023-03-01T10:34:58;16.05;;;4.88;;
27706;SDS011;36332;51.384;0.040;2023-03-01T10:37:25;8.85;;;2.53;;
27706;SDS011;36332;51.384;0.040;2023-03-01T10:39:58;4.55;;;1.80;;
27706;SDS011;36332;51.384;0.040;2023-03-01T10:42:37;8.65;;;2.15;;
27706;SDS011;36332;51.384;0.040;2023-03-01T10:47:46;6.97;;;1.50;;
27706;SDS011;36332;51.384;0.040;2023-03-01T10:50:20;4.05;;;1.50;;
27706;SDS011;36332;51.384;0.040;2023-03-01T10:52:57;3.83;;;1.40;;
27706;SDS011;36332;51.384;0.040;2023-03-01T10:58:20;4.72;;;1.60;;
27706;SDS011;36332;51.384;0.040;2023-03-01T11:00:53;3.50;;;1.30;;
27706;SDS011;36332;51.384;0.040;2023-03-01T11:05:51;2.90;;;1.60;;
27706;SDS011;36332;51.384;0.040;2023-03-01T11:08:35;1.90;;;1.33;;
27706;SDS011;36332;51.384;0.040;2023-03-01T11:17:03;6.68;;;1.65;;
27706;SDS011;36332;51.384;0.040;2023-03-01T11:19:39;6.18;;;1.27;;
27706;SDS011;36332;51.384;0.040;2023-03-01T11:22:10;6.95;;;1.45;;
27706;SDS011;36332;51.384;0.040;2023-03-01T11:27:28;6.28;;;1.58;;
27706;SDS011;36332;51.384;0.040;2023-03-01T11:30:02;6.57;;;2.55;;
27706;SDS011;36332;51.384;0.040;2023-03-01T11:32:42;5.40;;;2.05;;
27706;SDS011;36332;51.384;0.040;2023-03-01T11:35:25;12.63;;;2.53;;
27706;SDS011;36332;51.384;0.040;2023-03-01T11:40:49;2.63;;;1.25;;
27706;SDS011;36332;51.384;0.040;2023-03-01T11:51:53;10.23;;;1.83;;
27706;SDS011;36332;51.384;0.040;2023-03-01T12:06:52;5.13;;;1.55;;
27706;SDS011;36332;51.384;0.040;2023-03-01T12:27:42;5.10;;;2.00;;
27706;SDS011;36332;51.384;0.040;2023-03-01T12:38:50;2.25;;;1.35;;
27706;SDS011;36332;51.384;0.040;2023-03-01T12:47:31;11.55;;;2.08;;
27706;SDS011;36332;51.384;0.040;2023-03-01T12:50:24;7.47;;;2.60;;
27706;SDS011;36332;51.384;0.040;2023-03-01T12:53:04;6.85;;;1.80;;
27706;SDS011;36332;51.384;0.040;2023-03-01T12:55:36;5.25;;;1.77;;
27706;SDS011;36332;51.384;0.040;2023-03-01T13:06:25;4.80;;;1.95;;
27706;SDS011;36332;51.384;0.040;2023-03-01T13:11:50;34.42;;;3.90;;
27706;SDS011;36332;51.384;0.040;2023-03-01T13:16:48;4.35;;;2.10;;
27706;SDS011;36332;51.384;0.040;2023-03-01T13:19:18;7.13;;;2.25;;
27706;SDS011;36332;51.384;0.040;2023-03-01T13:21:48;7.75;;;2.35;;
27706;SDS011;36332;51.384;0.040;2023-03-01T13:29:48;13.73;;;3.15;;
27706;SDS011;36332;51.384;0.040;2023-03-01T13:32:22;9.45;;;2.20;;
27706;SDS011;36332;51.384;0.040;2023-03-01T13:37:44;8.38;;;2.60;;
27706;SDS011;36332;51.384;0.040;2023-03-01T13:42:50;8.00;;;2.78;;
27706;SDS011;36332;51.384;0.040;2023-03-01T13:45:38;6.45;;;2.70;;
27706;SDS011;36332;51.384;0.040;2023-03-01T13:48:09;36.05;;;5.75;;
27706;SDS011;36332;51.384;0.040;2023-03-01T13:50:53;6.05;;;2.83;;
27706;SDS011;36332;51.384;0.040;2023-03-01T13:53:25;10.98;;;3.45;;
27706;SDS011;36332;51.384;0.040;2023-03-01T13:55:55;10.10;;;3.70;;
27706;SDS011;36332;51.384;0.040;2023-03-01T13:58:30;8.57;;;3.65;;
27706;SDS011;36332;51.384;0.040;2023-03-01T14:03:31;3.85;;;2.70;;
27706;SDS011;36332;51.384;0.040;2023-03-01T14:08:41;4.45;;;2.20;;
27706;SDS011;36332;51.384;0.040;2023-03-01T14:11:21;4.70;;;2.42;;
27706;SDS011;36332;51.384;0.040;2023-03-01T14:14:27;3.97;;;2.35;;
27706;SDS011;36332;51.384;0.040;2023-03-01T14:19:28;9.13;;;2.25;;
27706;SDS011;36332;51.384;0.040;2023-03-01T14:22:15;5.90;;;2.30;;
27706;SDS011;36332;51.384;0.040;2023-03-01T14:24:55;8.65;;;2.85;;
27706;SDS011;36332;51.384;0.040;2023-03-01T14:27:40;9.52;;;2.63;;
27706;SDS011;36332;51.384;0.040;2023-03-01T14:32:54;11.63;;;3.30;;
27706;SDS011;36332;51.384;0.040;2023-03-01T14:35:25;8.40;;;2.88;;
27706;SDS011;36332;51.384;0.040;2023-03-01T14:37:58;12.93;;;3.47;;
27706;SDS011;36332;51.384;0.040;2023-03-01T14:42:58;10.43;;;4.45;;
27706;SDS011;36332;51.384;0.040;2023-03-01T14:45:28;9.45;;;3.05;;
27706;SDS011;36332;51.384;0.040;2023-03-01T14:47:58;9.32;;;3.78;;
27706;SDS011;36332;51.384;0.040;2023-03-01T14:50:32;10.00;;;3.90;;
27706;SDS011;36332;51.384;0.040;2023-03-01T14:53:02;10.27;;;3.83;;
27706;SDS011;36332;51.384;0.040;2023-03-01T14:55:33;10.85;;;3.95;;
27706;SDS011;36332;51.384;0.040;2023-03-01T14:58:04;12.73;;;3.05;;
27706;SDS011;36332;51.384;0.040;2023-03-01T15:00:33;3.80;;;2.65;;
27706;SDS011;36332;51.384;0.040;2023-03-01T15:03:06;8.27;;;3.83;;
27706;SDS011;36332;51.384;0.040;2023-03-01T15:05:40;5.55;;;2.47;;
27706;SDS011;36332;51.384;0.040;2023-03-01T15:08:28;8.30;;;3.25;;
27706;SDS011;36332;51.384;0.040;2023-03-01T15:11:04;15.07;;;4.68;;
27706;SDS011;36332;51.384;0.040;2023-03-01T15:13:44;10.55;;;4.20;;
27706;SDS011;36332;51.384;0.040;2023-03-01T15:16:13;17.67;;;5.00;;
27706;SDS011;36332;51.384;0.040;2023-03-01T15:18:45;6.95;;;3.67;;
27706;SDS011;36332;51.384;0.040;2023-03-01T15:21:15;7.15;;;3.00;;
27706;SDS011;36332;51.384;0.040;2023-03-01T15:23:51;7.82;;;3.25;;
27706;SDS011;36332;51.384;0.040;2023-03-01T15:26:26;18.67;;;6.25;;
27706;SDS011;36332;51.384;0.040;2023-03-01T15:28:58;18.77;;;4.30;;
27706;SDS011;36332;51.384;0.040;2023-03-01T15:31:31;15.88;;;4.53;;
27706;SDS011;36332;51.384;0.040;2023-03-01T15:34:09;11.10;;;5.05;;
27706;SDS011;36332;51.384;0.040;2023-03-01T15:36:50;16.52;;;4.68;;
27706;SDS011;36332;51.384;0.040;2023-03-01T15:39:36;17.17;;;5.38;;
27706;SDS011;36332;51.384;0.040;2023-03-01T15:44:36;12.63;;;4.13;;
27706;SDS011;36332;51.384;0.040;2023-03-01T15:49:52;5.22;;;2.50;;
27706;SDS011;36332;51.384;0.040;2023-03-01T15:52:23;3.47;;;2.15;;
27706;SDS011;36332;51.384;0.040;2023-03-01T15:54:59;10.05;;;2.58;;
27706;SDS011;36332;51.384;0.040;2023-03-01T15:57:30;8.50;;;2.70;;
27706;SDS011;36332;51.384;0.040;2023-03-01T15:59:57;12.90;;;2.65;;
27706;SDS011;36332;51.384;0.040;2023-03-01T16:02:25;5.78;;;2.83;;
27706;SDS011;36332;51.384;0.040;2023-03-01T16:04:52;8.50;;;2.63;;
27706;SDS011;36332;51.384;0.040;2023-03-01T16:07:20;8.35;;;2.80;;
27706;SDS011;36332;51.384;0.040;2023-03-01T16:09:48;10.70;;;3.05;;
27706;SDS011;36332;51.384;0.040;2023-03-01T16:12:15;12.63;;;3.15;;
27706;SDS011;36332;51.384;0.040;2023-03-01T16:14:43;11.02;;;3.38;;
27706;SDS011;36332;51.384;0.040;2023-03-01T16:17:11;9.18;;;3.80;;
27706;SDS011;36332;51.384;0.040;2023-03-01T16:19:38;7.22;;;3.60;;
27706;SDS011;36332;51.384;0.040;2023-03-01T16:22:08;9.57;;;4.97;;
27706;SDS011;36332;51.384;0.040;2023-03-01T16:24:37;6.25;;;4.00;;
27706;SDS011;36332;51.384;0.040;2023-03-01T16:27:04;7.93;;;3.75;;
27706;SDS011;36332;51.384;0.040;2023-03-01T16:29:32;9.00;;;3.78;;
27706;SDS011;36332;51.384;0.040;2023-03-01T16:32:01;17.17;;;4.07;;
27706;SDS011;36332;51.384;0.040;2023-03-01T16:34:29;12.77;;;3.75;;
27706;SDS011;36332;51.384;0.040;2023-03-01T16:36:57;20.27;;;3.70;;
27706;SDS011;36332;51.384;0.040;2023-03-01T16:39:24;9.10;;;3.55;;
27706;SDS011;36332;51.384;0.040;2023-03-01T16:41:51;7.78;;;4.30;;
27706;SDS011;36332;51.384;0.040;2023-03-01T16:44:19;17.67;;;3.53;;
27706;SDS011;36332;51.384;0.040;2023-03-01T16:46:46;5.88;;;3.38;;
27706;SDS011;36332;51.384;0.040;2023-03-01T16:49:15;9.98;;;3.38;;
27706;SDS011;36332;51.384;0.040;2023-03-01T16:51:42;12.23;;;3.63;;
27706;SDS011;36332;51.384;0.040;2023-03-01T16:54:10;9.27;;;2.90;;
27706;SDS011;36332;51.384;0.040;2023-03-01T16:56:38;21.00;;;4.22;;
27706;SDS011;36332;51.384;0.040;2023-03-01T16:59:06;12.63;;;3.20;;
27706;SDS011;36332;51.384;0.040;2023-03-01T17:01:34;7.18;;;2.90;;
27706;SDS011;36332;51.384;0.040;2023-03-01T17:04:10;5.40;;;3.00;;
27706;SDS011;36332;51.384;0.040;2023-03-01T17:06:38;6.72;;;3.20;;
27706;SDS011;36332;51.384;0.040;2023-03-01T17:09:06;12.05;;;3.65;;
27706;SDS011;36332;51.384;0.040;2023-03-01T17:11:34;9.95;;;3.55;;
27706;SDS011;36332;51.384;0.040;2023-03-01T17:14:02;11.52;;;5.07;;
27706;SDS011;36332;51.384;0.040;2023-03-01T17:16:30;8.13;;;3.78;;
27706;SDS011;36332;51.384;0.040;2023-03-01T17:18:57;11.95;;;3.20;;
27706;SDS011;36332;51.384;0.040;2023-03-01T17:21:25;15.15;;;4.55;;
27706;SDS011;36332;51.384;0.040;2023-03-01T17:23:56;7.82;;;4.53;;
27706;SDS011;36332;51.384;0.040;2023-03-01T17:26:24;9.55;;;4.22;;